createdAt,value
2022-11-05T00:00:01.904Z,99319.06
2022-11-05T00:04:50.333Z,99338.59
2022-11-05T00:09:16.026Z,99341.63
2022-11-05T00:13:41.276Z,99346.13
2022-11-05T00:17:49.588Z,99355.67
2022-11-05T00:22:15.079Z,99365.77
2022-11-05T00:26:22.558Z,99375.44
2022-11-05T00:30:31.874Z,99378.67
2022-11-05T00:34:39.327Z,99389.70
2022-11-05T00:38:47.542Z,99391.66
2022-11-05T00:43:12.525Z,99391.83
2022-11-05T00:47:39.582Z,99399.08
2022-11-05T00:51:48.102Z,99405.88
2022-11-05T00:55:55.515Z,99412.98
2022-11-05T01:00:03.212Z,99420.35
2022-11-05T01:04:11.598Z,99426.51
2022-11-05T01:08:21.285Z,99431.20
2022-11-05T01:12:29.134Z,99445.16
2022-11-05T01:16:38.041Z,99450.77
2022-11-05T01:20:45.985Z,99459.38
2022-11-05T01:24:53.987Z,99460.79
2022-11-05T01:29:02.044Z,99459.11
2022-11-05T01:33:10.428Z,99469.09
2022-11-05T01:37:18.456Z,99478.97
2022-11-05T01:41:26.409Z,99482.75
2022-11-05T01:45:34.180Z,99486.58
2022-11-05T01:49:41.861Z,99484.21
2022-11-05T01:53:52.295Z,99479.88
2022-11-05T01:58:00.945Z,99479.86
2022-11-05T02:02:10.206Z,99478.59
2022-11-05T02:06:22.098Z,99479.12
2022-11-05T02:10:30.777Z,99470.17
2022-11-05T02:14:38.182Z,99479.77
2022-11-05T02:18:52.616Z,99488.28
2022-11-05T02:23:20.307Z,99494.74
2022-11-05T02:27:53.985Z,99507.19
2022-11-05T02:32:05.713Z,99520.46
2022-11-05T02:36:35.644Z,99525.75
2022-11-05T02:40:51.559Z,99531.00
2022-11-05T02:45:02.164Z,99537.31
2022-11-05T02:49:20.009Z,99547.09
2022-11-05T02:53:34.347Z,99550.82
2022-11-05T02:57:47.348Z,99564.21
2022-11-05T03:01:55.931Z,99570.15
2022-11-05T03:06:20.415Z,99575.02
2022-11-05T03:10:43.467Z,99587.95
2022-11-05T03:14:57.837Z,99597.16
2022-11-05T03:19:12.175Z,99604.93
2022-11-05T03:23:26.112Z,99605.96
2022-11-05T03:27:35.840Z,99613.64
2022-11-05T03:31:44.924Z,99625.59
2022-11-05T03:35:56.195Z,99630.56
2022-11-05T03:40:05.732Z,99643.17
2022-11-05T03:44:15.711Z,99662.43
2022-11-05T03:48:24.035Z,99673.84
2022-11-05T03:52:35.260Z,99677.52
2022-11-05T03:56:45.338Z,99678.30
2022-11-05T04:00:54.028Z,99687.91
2022-11-05T04:05:01.639Z,99700.17
2022-11-05T04:09:26.606Z,99698.41
2022-11-05T04:13:37.390Z,99697.27
2022-11-05T04:17:45.169Z,99708.59
2022-11-05T04:22:10.426Z,99716.55
2022-11-05T04:26:23.751Z,99726.94
2022-11-05T04:30:31.483Z,99731.60
2022-11-05T04:34:39.013Z,99735.99
2022-11-05T04:38:47.073Z,99739.44
2022-11-05T04:42:57.094Z,99742.57
2022-11-05T04:47:04.650Z,99750.02
2022-11-05T04:51:12.867Z,99750.38
2022-11-05T04:55:21.459Z,99750.06
2022-11-05T04:59:30.465Z,99749.55
2022-11-05T05:03:39.456Z,99755.95
2022-11-05T05:07:48.007Z,99762.28
2022-11-05T05:11:55.560Z,99776.02
2022-11-05T05:16:08.821Z,99775.41
2022-11-05T05:20:34.549Z,99768.95
2022-11-05T05:24:42.471Z,99769.40
2022-11-05T05:28:51.470Z,99764.61
2022-11-05T05:33:01.023Z,99766.27
2022-11-05T05:37:08.819Z,99773.02
2022-11-05T05:41:18.371Z,99772.92
2022-11-05T05:45:26.541Z,99770.22
2022-11-05T05:49:34.332Z,99778.40
2022-11-05T05:53:42.030Z,99791.82
2022-11-05T05:57:49.206Z,99806.05
2022-11-05T06:01:57.493Z,99818.33
2022-11-05T06:06:08.187Z,99824.63
2022-11-05T06:10:17.264Z,99838.01
2022-11-05T06:14:25.528Z,99845.89
2022-11-05T06:18:33.090Z,99849.44
2022-11-05T06:25:15.682Z,99872.20
2022-11-05T06:29:24.332Z,99885.31
2022-11-05T06:33:32.577Z,99898.46
2022-11-05T06:37:40.748Z,99904.23
2022-11-05T06:42:16.747Z,99909.32
2022-11-05T06:46:15.872Z,99918.92
2022-11-05T06:50:23.615Z,99915.70
2022-11-05T06:54:32.590Z,99920.80
2022-11-05T06:58:40.243Z,99919.59
2022-11-05T07:02:48.928Z,99927.59
2022-11-05T07:07:01.076Z,99937.85
2022-11-05T07:11:13.363Z,99944.98
2022-11-05T07:15:21.243Z,99954.77
2022-11-05T07:19:28.723Z,99960.23
2022-11-05T07:23:36.310Z,99952.63
2022-11-05T07:27:44.766Z,99955.80
2022-11-05T07:31:52.193Z,99968.86
2022-11-05T07:36:00.934Z,99987.37
2022-11-05T07:40:10.995Z,100000.42
2022-11-05T07:44:19.123Z,100007.05
2022-11-05T07:48:26.859Z,100018.41
2022-11-05T07:52:35.550Z,100024.16
2022-11-05T07:56:43.436Z,100020.83
2022-11-05T08:00:51.123Z,100025.41
2022-11-05T08:04:59.528Z,100038.30
2022-11-05T08:09:08.579Z,100040.09
2022-11-05T08:13:16.909Z,100050.93
2022-11-05T08:17:24.513Z,100045.89
2022-11-05T08:21:31.823Z,100045.27
2022-11-05T08:25:40.161Z,100047.73
2022-11-05T08:29:49.123Z,100043.11
2022-11-05T08:34:02.173Z,100056.14
2022-11-05T08:38:13.732Z,100067.52
2022-11-05T08:42:21.981Z,100081.20
2022-11-05T08:46:29.994Z,100085.17
2022-11-05T08:50:38.565Z,100094.73
2022-11-05T08:54:46.182Z,100108.10
2022-11-05T08:58:53.497Z,100113.33
2022-11-05T09:03:03.965Z,100117.66
2022-11-05T09:07:12.162Z,100122.48
2022-11-05T09:11:19.739Z,100129.09
2022-11-05T09:15:28.239Z,100130.78
2022-11-05T09:19:39.833Z,100131.46
2022-11-05T09:23:48.540Z,100138.55
2022-11-05T09:27:56.758Z,100145.19
2022-11-05T09:32:09.981Z,100151.42
2022-11-05T09:36:18.248Z,100158.12
2022-11-05T09:40:26.802Z,100159.52
2022-11-05T09:44:38.394Z,100156.64
2022-11-05T09:48:47.716Z,100151.31
2022-11-05T09:52:55.351Z,100155.31
2022-11-05T09:57:04.929Z,100153.98
2022-11-05T10:01:15.984Z,100159.00
2022-11-05T10:05:24.374Z,100161.30
2022-11-05T10:09:35.640Z,100162.96
2022-11-05T10:13:46.180Z,100169.30
2022-11-05T10:17:58.273Z,100179.27
2022-11-05T10:22:13.445Z,100184.96
2022-11-05T10:26:23.442Z,100185.59
2022-11-05T10:30:31.304Z,100186.55
2022-11-05T10:34:40.592Z,100188.58
2022-11-05T10:38:48.837Z,100182.27
2022-11-05T10:43:04.629Z,100181.23
2022-11-05T10:47:31.387Z,100187.94
2022-11-05T10:51:39.196Z,100188.10
2022-11-05T10:55:48.361Z,100189.42
2022-11-05T10:59:55.711Z,100188.73
2022-11-05T11:04:22.577Z,100190.02
2022-11-05T11:08:31.031Z,100188.23
2022-11-05T11:12:41.612Z,100193.41
2022-11-05T11:16:50.839Z,100197.16
2022-11-05T11:21:08.855Z,100207.78
2022-11-05T11:25:27.950Z,100214.33
2022-11-05T11:29:41.980Z,100212.58
2022-11-05T11:33:57.247Z,100212.31
2022-11-05T11:38:05.287Z,100217.15
2022-11-05T11:42:24.894Z,100223.98
2022-11-05T11:46:34.597Z,100235.35
2022-11-05T11:50:44.532Z,100238.30
2022-11-05T11:54:53.332Z,100243.22
2022-11-05T11:59:05.622Z,100250.17
2022-11-05T12:03:27.116Z,100245.46
2022-11-05T12:07:44.819Z,100246.58
2022-11-05T12:12:00.335Z,100246.91
2022-11-05T12:16:13.417Z,100249.95
2022-11-05T12:20:30.264Z,100248.48
2022-11-05T12:24:57.542Z,100251.60
2022-11-05T12:29:32.844Z,100262.63
2022-11-05T12:33:51.265Z,100270.84
2022-11-05T12:38:08.179Z,100279.39
2022-11-05T12:42:29.020Z,100281.33
2022-11-05T12:46:41.894Z,100277.92
2022-11-05T12:50:54.599Z,100277.19
2022-11-05T12:55:09.694Z,100285.11
2022-11-05T12:59:20.923Z,100281.45
2022-11-05T13:03:38.091Z,100279.00
2022-11-05T13:07:51.008Z,100277.85
2022-11-05T13:12:01.016Z,100278.80
2022-11-05T13:16:12.289Z,100276.97
2022-11-05T13:20:23.633Z,100275.91
2022-11-05T13:24:36.161Z,100282.36
2022-11-05T13:28:49.368Z,100291.98
2022-11-05T13:33:01.608Z,100296.44
2022-11-05T13:37:28.276Z,100301.27
2022-11-05T13:41:45.032Z,100303.72
2022-11-05T13:46:18.280Z,100305.08
2022-11-05T13:51:02.524Z,100309.27
2022-11-05T13:55:37.878Z,100313.19
2022-11-05T13:59:58.692Z,100314.21
2022-11-05T14:04:08.741Z,100316.18
2022-11-05T14:08:21.382Z,100329.11
2022-11-05T14:12:33.435Z,100326.69
2022-11-05T14:16:52.459Z,100327.89
2022-11-05T14:21:04.648Z,100329.05
2022-11-05T14:26:01.098Z,100330.59
2022-11-05T14:30:41.097Z,100344.55
2022-11-05T14:34:55.192Z,100357.51
2022-11-05T14:39:16.084Z,100364.55
2022-11-05T14:43:26.906Z,100369.98
2022-11-05T14:47:37.485Z,100369.26
2022-11-05T14:51:47.626Z,100376.89
2022-11-05T14:56:02.414Z,100380.70
2022-11-05T15:00:45.049Z,100384.02
2022-11-05T15:04:53.457Z,100388.95
2022-11-05T15:09:22.975Z,100394.45
2022-11-05T15:13:35.130Z,100389.02
2022-11-05T15:17:51.752Z,100394.34
2022-11-05T15:22:01.286Z,100397.52
2022-11-05T15:26:14.149Z,100401.26
2022-11-05T15:30:23.858Z,100407.10
2022-11-05T15:34:32.671Z,100411.29
2022-11-05T15:38:51.978Z,100408.80
2022-11-05T15:43:16.645Z,100411.40
2022-11-05T15:47:26.563Z,100416.29
2022-11-05T15:51:38.039Z,100424.71
2022-11-05T15:55:53.463Z,100432.75
2022-11-05T16:00:02.579Z,100439.80
2022-11-05T16:04:18.514Z,100444.53
2022-11-05T16:08:28.509Z,100451.60
2022-11-05T16:12:37.883Z,100453.05
2022-11-05T16:16:52.058Z,100450.85
2022-11-05T16:21:08.957Z,100448.87
2022-11-05T16:25:30.481Z,100458.63
2022-11-05T16:29:40.153Z,100464.29
2022-11-05T16:33:48.548Z,100472.34
2022-11-05T16:37:56.134Z,100475.23
2022-11-05T16:42:03.849Z,100479.96
2022-11-05T16:46:15.790Z,100479.13
2022-11-05T16:50:26.503Z,100481.21
2022-11-05T16:54:34.502Z,100488.02
2022-11-05T16:58:46.895Z,100494.69
2022-11-05T17:02:55.790Z,100498.30
2022-11-05T17:07:03.940Z,100506.08
2022-11-05T17:11:12.888Z,100503.60
2022-11-05T17:15:23.488Z,100508.61
2022-11-05T17:19:31.360Z,100516.12
2022-11-05T17:23:39.421Z,100521.95
2022-11-05T17:27:47.215Z,100521.58
2022-11-05T17:31:55.244Z,100523.35
2022-11-05T17:36:07.214Z,100525.49
2022-11-05T17:40:20.156Z,100530.52
2022-11-05T17:44:27.689Z,100535.45
2022-11-05T17:48:35.825Z,100537.80
2022-11-05T17:52:44.229Z,100536.23
2022-11-05T17:56:52.301Z,100538.83
2022-11-05T18:00:59.527Z,100542.05
2022-11-05T18:05:14.196Z,100551.39
2022-11-05T18:09:23.382Z,100559.16
2022-11-05T18:13:31.084Z,100560.52
2022-11-05T18:17:39.256Z,100559.73
2022-11-05T18:21:48.460Z,100559.89
2022-11-05T18:25:57.827Z,100561.28
2022-11-05T18:30:08.005Z,100568.11
2022-11-05T18:34:16.553Z,100573.77
2022-11-05T18:38:24.723Z,100577.98
2022-11-05T18:42:33.192Z,100579.48
2022-11-05T18:46:57.773Z,100591.30
2022-11-05T18:51:10.910Z,100596.13
2022-11-05T18:55:19.190Z,100596.22
2022-11-05T18:59:37.745Z,100600.42
2022-11-05T19:03:49.429Z,100602.14
2022-11-05T19:07:57.668Z,100610.90
2022-11-05T19:12:10.346Z,100613.76
2022-11-05T19:16:20.017Z,100618.14
2022-11-05T19:20:29.649Z,100624.72
2022-11-05T19:24:39.676Z,100628.39
2022-11-05T19:28:47.595Z,100634.11
2022-11-05T19:32:55.464Z,100637.28
2022-11-05T19:37:06.879Z,100644.40
2022-11-05T19:41:18.520Z,100645.63
2022-11-05T19:49:53.655Z,100656.63
2022-11-05T19:54:01.805Z,100660.27
2022-11-05T19:58:11.128Z,100660.55
2022-11-05T20:02:20.442Z,100660.03
2022-11-05T20:06:32.063Z,100660.17
2022-11-05T20:10:41.289Z,100655.05
2022-11-05T20:14:49.370Z,100658.13
2022-11-05T20:18:58.742Z,100662.25
2022-11-05T20:23:35.190Z,100665.03
2022-11-05T20:27:45.282Z,100667.55
2022-11-05T20:31:53.988Z,100659.70
2022-11-05T20:36:09.167Z,100668.86
2022-11-05T20:40:17.734Z,100673.45
2022-11-05T20:44:25.721Z,100682.89
2022-11-05T20:48:35.372Z,100687.34
2022-11-05T20:52:42.929Z,100685.95
2022-11-05T20:56:50.406Z,100685.13
2022-11-05T21:00:59.320Z,100689.33
2022-11-05T21:05:08.407Z,100690.09
2022-11-05T21:09:16.884Z,100689.35
2022-11-05T21:13:25.049Z,100690.54
2022-11-05T21:17:32.494Z,100692.11
2022-11-05T21:21:41.411Z,100693.39
2022-11-05T21:25:49.351Z,100694.16
2022-11-05T21:29:57.081Z,100691.80
2022-11-05T21:34:07.383Z,100689.70
2022-11-05T21:38:17.314Z,100690.16
2022-11-05T21:42:24.978Z,100685.00
2022-11-05T21:46:32.669Z,100681.65
2022-11-05T21:51:01.117Z,100684.63
2022-11-05T21:55:28.195Z,100683.73
2022-11-05T21:59:52.422Z,100686.64
2022-11-05T22:04:03.030Z,100690.14
2022-11-05T22:08:11.976Z,100690.88
2022-11-05T22:12:20.081Z,100694.73
2022-11-05T22:16:27.506Z,100699.67
2022-11-05T22:20:35.315Z,100694.41
2022-11-05T22:24:43.412Z,100697.64
2022-11-05T22:28:51.220Z,100700.95
2022-11-05T22:32:58.918Z,100707.50
2022-11-05T22:37:06.559Z,100707.41
2022-11-05T22:41:17.569Z,100706.47
2022-11-05T22:45:25.324Z,100706.05
2022-11-05T22:49:33.335Z,100710.62
2022-11-05T22:53:41.804Z,100708.37
2022-11-05T22:57:49.164Z,100713.05
2022-11-05T23:01:57.098Z,100709.53
2022-11-05T23:06:07.730Z,100706.80
2022-11-05T23:10:32.969Z,100710.14
2022-11-05T23:14:41.338Z,100705.98
2022-11-05T23:19:06.214Z,100706.06
2022-11-05T23:23:32.268Z,100708.35
2022-11-05T23:27:42.160Z,100708.83
2022-11-05T23:32:08.124Z,100711.95
2022-11-05T23:36:34.575Z,100720.02
2022-11-05T23:40:56.109Z,100723.90
2022-11-05T23:45:21.341Z,100722.53
2022-11-05T23:49:30.484Z,100726.04
2022-11-05T23:53:41.658Z,100724.69
2022-11-05T23:57:49.304Z,100721.66
